sensor_id;sensor_type;location;lat;lon;timestamp;pressure;altitude;pressure_sealevel;temperature
19040;BMP180;9652;49.014;12.052;2023-03-05T00:02:04;97944.00;;;6.30
19040;BMP180;9652;49.014;12.052;2023-03-05T00:04:31;97945.00;;;6.30
19040;BMP180;9652;49.014;12.052;2023-03-05T00:06:59;97951.00;;;6.30
19040;BMP180;9652;49.014;12.052;2023-03-05T00:09:26;97957.00;;;6.30
19040;BMP180;9652;49.014;12.052;2023-03-05T00:11:54;97951.00;;;6.30
19040;BMP180;9652;49.014;12.052;2023-03-05T00:14:21;97955.00;;;6.30
19040;BMP180;9652;49.014;12.052;2023-03-05T00:16:48;97946.00;;;6.30
19040;BMP180;9652;49.014;12.052;2023-03-05T00:19:15;97935.00;;;6.30
19040;BMP180;9652;49.014;12.052;2023-03-05T00:21:42;97935.00;;;6.30
19040;BMP180;9652;49.014;12.052;2023-03-05T00:24:13;97938.00;;;6.30
19040;BMP180;9652;49.014;12.052;2023-03-05T00:26:42;97935.00;;;6.30
19040;BMP180;9652;49.014;12.052;2023-03-05T00:29:15;97938.00;;;6.20
19040;BMP180;9652;49.014;12.052;2023-03-05T00:31:44;97941.00;;;6.30
19040;BMP180;9652;49.014;12.052;2023-03-05T00:34:15;97934.00;;;6.00
19040;BMP180;9652;49.014;12.052;2023-03-05T00:36:45;97934.00;;;6.20
19040;BMP180;9652;49.014;12.052;2023-03-05T00:39:14;97918.00;;;6.20
19040;BMP180;9652;49.014;12.052;2023-03-05T00:41:42;97925.00;;;6.20
19040;BMP180;9652;49.014;12.052;2023-03-05T00:44:10;97928.00;;;6.20
19040;BMP180;9652;49.014;12.052;2023-03-05T00:46:38;97916.00;;;6.20
19040;BMP180;9652;49.014;12.052;2023-03-05T00:49:06;97893.00;;;6.20
19040;BMP180;9652;49.014;12.052;2023-03-05T00:51:33;97915.00;;;6.20
19040;BMP180;9652;49.014;12.052;2023-03-05T00:54:01;97935.00;;;6.20
19040;BMP180;9652;49.014;12.052;2023-03-05T00:56:28;97920.00;;;6.20
19040;BMP180;9652;49.014;12.052;2023-03-05T00:58:55;97927.00;;;6.10
19040;BMP180;9652;49.014;12.052;2023-03-05T01:01:24;97917.00;;;6.10
19040;BMP180;9652;49.014;12.052;2023-03-05T01:03:51;97921.00;;;6.10
19040;BMP180;9652;49.014;12.052;2023-03-05T01:06:21;97912.00;;;6.10
19040;BMP180;9652;49.014;12.052;2023-03-05T01:08:48;97896.00;;;6.10
19040;BMP180;9652;49.014;12.052;2023-03-05T01:11:16;97903.00;;;6.10
19040;BMP180;9652;49.014;12.052;2023-03-05T01:13:43;97897.00;;;6.20
19040;BMP180;9652;49.014;12.052;2023-03-05T01:16:10;97900.00;;;6.20
19040;BMP180;9652;49.014;12.052;2023-03-05T01:18:39;97896.00;;;6.20
19040;BMP180;9652;49.014;12.052;2023-03-05T01:21:07;97893.00;;;6.20
19040;BMP180;9652;49.014;12.052;2023-03-05T01:23:35;97893.00;;;6.20
19040;BMP180;9652;49.014;12.052;2023-03-05T01:26:04;97873.00;;;6.20
19040;BMP180;9652;49.014;12.052;2023-03-05T01:28:31;97886.00;;;6.20
19040;BMP180;9652;49.014;12.052;2023-03-05T01:30:58;97877.00;;;6.20
19040;BMP180;9652;49.014;12.052;2023-03-05T01:33:25;97877.00;;;6.20
19040;BMP180;9652;49.014;12.052;2023-03-05T01:35:54;97888.00;;;6.20
19040;BMP180;9652;49.014;12.052;2023-03-05T01:38:21;97888.00;;;6.20
19040;BMP180;9652;49.014;12.052;2023-03-05T01:40:48;97870.00;;;6.20
19040;BMP180;9652;49.014;12.052;2023-03-05T01:43:24;97883.00;;;6.10
19040;BMP180;9652;49.014;12.052;2023-03-05T01:46:29;97860.00;;;6.20
19040;BMP180;9652;49.014;12.052;2023-03-05T01:49:20;97862.00;;;6.20
19040;BMP180;9652;49.014;12.052;2023-03-05T01:52:01;97861.00;;;6.10
19040;BMP180;9652;49.014;12.052;2023-03-05T01:54:34;97858.00;;;6.10
19040;BMP180;9652;49.014;12.052;2023-03-05T01:57:08;97849.00;;;6.10
19040;BMP180;9652;49.014;12.052;2023-03-05T01:59:38;97852.00;;;6.10
19040;BMP180;9652;49.014;12.052;2023-03-05T02:02:08;97844.00;;;6.10
19040;BMP180;9652;49.014;12.052;2023-03-05T02:04:41;97851.00;;;6.10
19040;BMP180;9652;49.014;12.052;2023-03-05T02:07:12;97847.00;;;6.00
19040;BMP180;9652;49.014;12.052;2023-03-05T02:09:40;97847.00;;;6.10
19040;BMP180;9652;49.014;12.052;2023-03-05T02:12:09;97851.00;;;6.10
19040;BMP180;9652;49.014;12.052;2023-03-05T02:14:39;97847.00;;;6.00
19040;BMP180;9652;49.014;12.052;2023-03-05T02:17:09;97847.00;;;6.00
19040;BMP180;9652;49.014;12.052;2023-03-05T02:19:50;97844.00;;;6.00
19040;BMP180;9652;49.014;12.052;2023-03-05T02:22:22;97834.00;;;6.00
19040;BMP180;9652;49.014;12.052;2023-03-05T02:24:51;97841.00;;;6.00
19040;BMP180;9652;49.014;12.052;2023-03-05T02:27:22;97831.00;;;6.00
19040;BMP180;9652;49.014;12.052;2023-03-05T02:29:52;97834.00;;;6.00
19040;BMP180;9652;49.014;12.052;2023-03-05T02:32:19;97827.00;;;6.00
19040;BMP180;9652;49.014;12.052;2023-03-05T02:34:46;97830.00;;;6.00
19040;BMP180;9652;49.014;12.052;2023-03-05T02:37:13;97828.00;;;6.00
19040;BMP180;9652;49.014;12.052;2023-03-05T02:39:41;97817.00;;;6.00
19040;BMP180;9652;49.014;12.052;2023-03-05T02:42:09;97765.00;;;6.00
19040;BMP180;9652;49.014;12.052;2023-03-05T02:44:36;97815.00;;;6.00
19040;BMP180;9652;49.014;12.052;2023-03-05T02:47:04;97811.00;;;6.00
19040;BMP180;9652;49.014;12.052;2023-03-05T02:49:33;97813.00;;;6.00
19040;BMP180;9652;49.014;12.052;2023-03-05T02:52:00;97806.00;;;6.00
19040;BMP180;9652;49.014;12.052;2023-03-05T02:54:28;97817.00;;;6.00
19040;BMP180;9652;49.014;12.052;2023-03-05T02:56:56;97800.00;;;6.00
19040;BMP180;9652;49.014;12.052;2023-03-05T02:59:23;97803.00;;;6.00
19040;BMP180;9652;49.014;12.052;2023-03-05T03:01:50;97808.00;;;5.90
19040;BMP180;9652;49.014;12.052;2023-03-05T03:04:17;97795.00;;;6.00
19040;BMP180;9652;49.014;12.052;2023-03-05T03:06:44;97809.00;;;5.90
19040;BMP180;9652;49.014;12.052;2023-03-05T03:09:11;97816.00;;;5.90
19040;BMP180;9652;49.014;12.052;2023-03-05T03:11:38;97813.00;;;6.00
19040;BMP180;9652;49.014;12.052;2023-03-05T03:14:07;97813.00;;;5.90
19040;BMP180;9652;49.014;12.052;2023-03-05T03:16:34;97807.00;;;5.90
19040;BMP180;9652;49.014;12.052;2023-03-05T03:19:01;97804.00;;;5.90
19040;BMP180;9652;49.014;12.052;2023-03-05T03:21:28;97804.00;;;5.90
19040;BMP180;9652;49.014;12.052;2023-03-05T03:23:55;97814.00;;;5.90
19040;BMP180;9652;49.014;12.052;2023-03-05T03:26:22;97792.00;;;5.90
19040;BMP180;9652;49.014;12.052;2023-03-05T03:28:49;97796.00;;;5.90
19040;BMP180;9652;49.014;12.052;2023-03-05T03:31:17;97797.00;;;5.90
19040;BMP180;9652;49.014;12.052;2023-03-05T03:33:44;97787.00;;;5.90
19040;BMP180;9652;49.014;12.052;2023-03-05T03:36:12;97789.00;;;5.90
19040;BMP180;9652;49.014;12.052;2023-03-05T03:38:39;97792.00;;;5.90
19040;BMP180;9652;49.014;12.052;2023-03-05T03:41:07;97792.00;;;5.70
19040;BMP180;9652;49.014;12.052;2023-03-05T03:43:35;97796.00;;;6.00
19040;BMP180;9652;49.014;12.052;2023-03-05T03:46:04;97785.00;;;6.00
19040;BMP180;9652;49.014;12.052;2023-03-05T03:48:33;97784.00;;;6.00
19040;BMP180;9652;49.014;12.052;2023-03-05T03:51:04;97779.00;;;6.00
19040;BMP180;9652;49.014;12.052;2023-03-05T03:53:32;97779.00;;;6.00
19040;BMP180;9652;49.014;12.052;2023-03-05T03:55:59;97768.00;;;6.00
19040;BMP180;9652;49.014;12.052;2023-03-05T03:58:26;97781.00;;;6.00
19040;BMP180;9652;49.014;12.052;2023-03-05T04:00:53;97769.00;;;6.00
19040;BMP180;9652;49.014;12.052;2023-03-05T04:03:20;97771.00;;;6.00
19040;BMP180;9652;49.014;12.052;2023-03-05T04:05:48;97770.00;;;6.00
19040;BMP180;9652;49.014;12.052;2023-03-05T04:08:16;97777.00;;;6.00
19040;BMP180;9652;49.014;12.052;2023-03-05T04:10:43;97779.00;;;6.00
19040;BMP180;9652;49.014;12.052;2023-03-05T04:13:10;97775.00;;;6.00
19040;BMP180;9652;49.014;12.052;2023-03-05T04:15:39;97754.00;;;6.00
19040;BMP180;9652;49.014;12.052;2023-03-05T04:18:06;97766.00;;;6.00
19040;BMP180;9652;49.014;12.052;2023-03-05T04:20:33;97742.00;;;6.00
19040;BMP180;9652;49.014;12.052;2023-03-05T04:23:02;97759.00;;;6.00
19040;BMP180;9652;49.014;12.052;2023-03-05T04:25:29;97775.00;;;6.00
19040;BMP180;9652;49.014;12.052;2023-03-05T04:27:56;97759.00;;;5.80
19040;BMP180;9652;49.014;12.052;2023-03-05T04:30:23;97756.00;;;6.00
19040;BMP180;9652;49.014;12.052;2023-03-05T04:32:50;97756.00;;;6.00
19040;BMP180;9652;49.014;12.052;2023-03-05T04:35:17;97759.00;;;6.00
19040;BMP180;9652;49.014;12.052;2023-03-05T04:37:44;97757.00;;;6.00
19040;BMP180;9652;49.014;12.052;2023-03-05T04:40:14;97765.00;;;6.00
19040;BMP180;9652;49.014;12.052;2023-03-05T04:42:42;97752.00;;;6.00
19040;BMP180;9652;49.014;12.052;2023-03-05T04:45:10;97754.00;;;6.00
19040;BMP180;9652;49.014;12.052;2023-03-05T04:47:37;97753.00;;;6.00
19040;BMP180;9652;49.014;12.052;2023-03-05T04:50:06;97748.00;;;6.00
19040;BMP180;9652;49.014;12.052;2023-03-05T04:52:34;97741.00;;;6.10
19040;BMP180;9652;49.014;12.052;2023-03-05T04:55:01;97744.00;;;6.10
19040;BMP180;9652;49.014;12.052;2023-03-05T04:57:29;97754.00;;;6.10
19040;BMP180;9652;49.014;12.052;2023-03-05T04:59:56;97748.00;;;6.10
19040;BMP180;9652;49.014;12.052;2023-03-05T05:02:23;97734.00;;;6.10
19040;BMP180;9652;49.014;12.052;2023-03-05T05:04:52;97738.00;;;6.10
19040;BMP180;9652;49.014;12.052;2023-03-05T05:07:19;97735.00;;;6.10
19040;BMP180;9652;49.014;12.052;2023-03-05T05:09:46;97742.00;;;6.10
19040;BMP180;9652;49.014;12.052;2023-03-05T05:12:13;97729.00;;;6.10
19040;BMP180;9652;49.014;12.052;2023-03-05T05:14:41;97731.00;;;6.10
19040;BMP180;9652;49.014;12.052;2023-03-05T05:17:09;97734.00;;;6.10
19040;BMP180;9652;49.014;12.052;2023-03-05T05:19:36;97738.00;;;6.10
19040;BMP180;9652;49.014;12.052;2023-03-05T05:22:03;97725.00;;;6.10
19040;BMP180;9652;49.014;12.052;2023-03-05T05:24:30;97741.00;;;6.10
19040;BMP180;9652;49.014;12.052;2023-03-05T05:26:57;97735.00;;;6.10
19040;BMP180;9652;49.014;12.052;2023-03-05T05:29:24;97735.00;;;6.10
19040;BMP180;9652;49.014;12.052;2023-03-05T05:31:52;97733.00;;;6.10
19040;BMP180;9652;49.014;12.052;2023-03-05T05:34:21;97736.00;;;5.90
19040;BMP180;9652;49.014;12.052;2023-03-05T05:36:49;97747.00;;;6.10
19040;BMP180;9652;49.014;12.052;2023-03-05T05:39:17;97744.00;;;6.10
19040;BMP180;9652;49.014;12.052;2023-03-05T05:41:44;97742.00;;;6.10
19040;BMP180;9652;49.014;12.052;2023-03-05T05:44:11;97737.00;;;6.10
19040;BMP180;9652;49.014;12.052;2023-03-05T05:46:38;97739.00;;;6.10
19040;BMP180;9652;49.014;12.052;2023-03-05T05:49:06;97747.00;;;6.10
19040;BMP180;9652;49.014;12.052;2023-03-05T05:51:33;97748.00;;;6.10
19040;BMP180;9652;49.014;12.052;2023-03-05T05:54:01;97746.00;;;6.10
19040;BMP180;9652;49.014;12.052;2023-03-05T05:56:28;97751.00;;;6.10
19040;BMP180;9652;49.014;12.052;2023-03-05T05:58:55;97734.00;;;6.10
19040;BMP180;9652;49.014;12.052;2023-03-05T06:01:26;97749.00;;;6.10
19040;BMP180;9652;49.014;12.052;2023-03-05T06:03:54;97730.00;;;6.10
19040;BMP180;9652;49.014;12.052;2023-03-05T06:06:25;97755.00;;;6.10
19040;BMP180;9652;49.014;12.052;2023-03-05T06:08:53;97757.00;;;6.10
19040;BMP180;9652;49.014;12.052;2023-03-05T06:11:21;97752.00;;;6.10
19040;BMP180;9652;49.014;12.052;2023-03-05T06:13:49;97755.00;;;6.10
19040;BMP180;9652;49.014;12.052;2023-03-05T06:16:20;97750.00;;;6.10
19040;BMP180;9652;49.014;12.052;2023-03-05T06:18:49;97749.00;;;6.10
19040;BMP180;9652;49.014;12.052;2023-03-05T06:21:18;97751.00;;;6.10
19040;BMP180;9652;49.014;12.052;2023-03-05T06:23:48;97650.00;;;6.10
19040;BMP180;9652;49.014;12.052;2023-03-05T06:26:19;97742.00;;;6.10
19040;BMP180;9652;49.014;12.052;2023-03-05T06:28:46;97751.00;;;6.20
19040;BMP180;9652;49.014;12.052;2023-03-05T06:31:16;97740.00;;;6.20
19040;BMP180;9652;49.014;12.052;2023-03-05T06:33:44;97740.00;;;6.20
19040;BMP180;9652;49.014;12.052;2023-03-05T06:36:13;97732.00;;;6.20
19040;BMP180;9652;49.014;12.052;2023-03-05T06:38:41;97753.00;;;6.20
19040;BMP180;9652;49.014;12.052;2023-03-05T06:41:13;97747.00;;;6.20
19040;BMP180;9652;49.014;12.052;2023-03-05T06:43:43;97753.00;;;6.30
19040;BMP180;9652;49.014;12.052;2023-03-05T06:46:13;97733.00;;;6.30
19040;BMP180;9652;49.014;12.052;2023-03-05T06:48:41;97742.00;;;6.30
19040;BMP180;9652;49.014;12.052;2023-03-05T06:51:13;97741.00;;;6.30
19040;BMP180;9652;49.014;12.052;2023-03-05T06:53:41;97742.00;;;6.40
19040;BMP180;9652;49.014;12.052;2023-03-05T06:56:10;97743.00;;;6.40
19040;BMP180;9652;49.014;12.052;2023-03-05T06:58:38;97745.00;;;6.40
19040;BMP180;9652;49.014;12.052;2023-03-05T07:01:06;97738.00;;;6.40
19040;BMP180;9652;49.014;12.052;2023-03-05T07:03:34;97733.00;;;6.50
19040;BMP180;9652;49.014;12.052;2023-03-05T07:06:03;97743.00;;;6.50
19040;BMP180;9652;49.014;12.052;2023-03-05T07:08:31;97734.00;;;6.50
19040;BMP180;9652;49.014;12.052;2023-03-05T07:10:58;97736.00;;;6.50
19040;BMP180;9652;49.014;12.052;2023-03-05T07:13:27;97727.00;;;6.60
19040;BMP180;9652;49.014;12.052;2023-03-05T07:15:55;97721.00;;;6.60
19040;BMP180;9652;49.014;12.052;2023-03-05T07:18:23;97736.00;;;6.60
19040;BMP180;9652;49.014;12.052;2023-03-05T07:20:50;97739.00;;;6.70
19040;BMP180;9652;49.014;12.052;2023-03-05T07:23:17;97734.00;;;6.70
19040;BMP180;9652;49.014;12.052;2023-03-05T07:25:44;97733.00;;;6.70
19040;BMP180;9652;49.014;12.052;2023-03-05T07:28:11;97736.00;;;6.80
19040;BMP180;9652;49.014;12.052;2023-03-05T07:30:39;97725.00;;;6.80
19040;BMP180;9652;49.014;12.052;2023-03-05T07:33:06;97735.00;;;6.90
19040;BMP180;9652;49.014;12.052;2023-03-05T07:35:33;97724.00;;;6.90
19040;BMP180;9652;49.014;12.052;2023-03-05T07:38:00;97726.00;;;6.90
19040;BMP180;9652;49.014;12.052;2023-03-05T07:40:27;97732.00;;;7.00
19040;BMP180;9652;49.014;12.052;2023-03-05T07:42:54;97728.00;;;7.00
19040;BMP180;9652;49.014;12.052;2023-03-05T07:45:29;97716.00;;;7.00
19040;BMP180;9652;49.014;12.052;2023-03-05T07:47:58;97727.00;;;7.10
19040;BMP180;9652;49.014;12.052;2023-03-05T07:50:25;97721.00;;;7.10
19040;BMP180;9652;49.014;12.052;2023-03-05T07:52:52;97727.00;;;7.10
19040;BMP180;9652;49.014;12.052;2023-03-05T07:55:19;97724.00;;;7.10
19040;BMP180;9652;49.014;12.052;2023-03-05T07:57:46;97725.00;;;7.20
19040;BMP180;9652;49.014;12.052;2023-03-05T08:00:14;97721.00;;;7.20
19040;BMP180;9652;49.014;12.052;2023-03-05T08:02:42;97721.00;;;7.20
19040;BMP180;9652;49.014;12.052;2023-03-05T08:05:10;97721.00;;;7.30
19040;BMP180;9652;49.014;12.052;2023-03-05T08:07:38;97719.00;;;7.30
19040;BMP180;9652;49.014;12.052;2023-03-05T08:10:07;97710.00;;;7.30
19040;BMP180;9652;49.014;12.052;2023-03-05T08:12:34;97710.00;;;7.40
19040;BMP180;9652;49.014;12.052;2023-03-05T08:15:01;97706.00;;;7.40
19040;BMP180;9652;49.014;12.052;2023-03-05T08:17:29;97713.00;;;7.40
19040;BMP180;9652;49.014;12.052;2023-03-05T08:19:56;97714.00;;;7.20
19040;BMP180;9652;49.014;12.052;2023-03-05T08:22:26;97702.00;;;7.50
19040;BMP180;9652;49.014;12.052;2023-03-05T08:24:53;97705.00;;;7.50
19040;BMP180;9652;49.014;12.052;2023-03-05T08:27:20;97701.00;;;7.40
19040;BMP180;9652;49.014;12.052;2023-03-05T08:29:47;97699.00;;;7.60
19040;BMP180;9652;49.014;12.052;2023-03-05T08:32:14;97702.00;;;7.60
19040;BMP180;9652;49.014;12.052;2023-03-05T08:34:41;97708.00;;;7.60
19040;BMP180;9652;49.014;12.052;2023-03-05T08:37:08;97712.00;;;7.60
19040;BMP180;9652;49.014;12.052;2023-03-05T08:39:37;97708.00;;;7.70
19040;BMP180;9652;49.014;12.052;2023-03-05T08:42:05;97701.00;;;7.70
19040;BMP180;9652;49.014;12.052;2023-03-05T08:44:32;97708.00;;;7.70
19040;BMP180;9652;49.014;12.052;2023-03-05T08:46:59;97708.00;;;7.70
19040;BMP180;9652;49.014;12.052;2023-03-05T08:49:26;97710.00;;;7.70
19040;BMP180;9652;49.014;12.052;2023-03-05T08:51:53;97705.00;;;7.80
19040;BMP180;9652;49.014;12.052;2023-03-05T08:54:20;97702.00;;;7.80
19040;BMP180;9652;49.014;12.052;2023-03-05T08:56:48;97702.00;;;7.80
19040;BMP180;9652;49.014;12.052;2023-03-05T08:59:16;97705.00;;;7.90
19040;BMP180;9652;49.014;12.052;2023-03-05T09:01:43;97699.00;;;7.90
19040;BMP180;9652;49.014;12.052;2023-03-05T09:04:10;97695.00;;;8.00
19040;BMP180;9652;49.014;12.052;2023-03-05T09:06:37;97689.00;;;8.00
19040;BMP180;9652;49.014;12.052;2023-03-05T09:09:06;97688.00;;;8.10
19040;BMP180;9652;49.014;12.052;2023-03-05T09:11:33;97678.00;;;8.10
19040;BMP180;9652;49.014;12.052;2023-03-05T09:14:02;97696.00;;;8.00
19040;BMP180;9652;49.014;12.052;2023-03-05T09:16:30;97681.00;;;8.30
19040;BMP180;9652;49.014;12.052;2023-03-05T09:18:58;97684.00;;;8.30
19040;BMP180;9652;49.014;12.052;2023-03-05T09:21:25;97678.00;;;8.40
19040;BMP180;9652;49.014;12.052;2023-03-05T09:23:52;97690.00;;;8.50
19040;BMP180;9652;49.014;12.052;2023-03-05T09:26:24;97695.00;;;8.50
19040;BMP180;9652;49.014;12.052;2023-03-05T09:28:52;97682.00;;;8.60
19040;BMP180;9652;49.014;12.052;2023-03-05T09:31:20;97687.00;;;8.60
19040;BMP180;9652;49.014;12.052;2023-03-05T09:33:50;97672.00;;;8.70
19040;BMP180;9652;49.014;12.052;2023-03-05T09:36:19;97672.00;;;8.70
19040;BMP180;9652;49.014;12.052;2023-03-05T09:38:47;97668.00;;;8.80
19040;BMP180;9652;49.014;12.052;2023-03-05T09:41:24;97673.00;;;8.90
19040;BMP180;9652;49.014;12.052;2023-03-05T09:44:04;97668.00;;;8.90
19040;BMP180;9652;49.014;12.052;2023-03-05T09:46:51;97668.00;;;9.00
19040;BMP180;9652;49.014;12.052;2023-03-05T09:49:31;97664.00;;;9.00
19040;BMP180;9652;49.014;12.052;2023-03-05T09:52:06;97666.00;;;9.00
19040;BMP180;9652;49.014;12.052;2023-03-05T09:54:41;97672.00;;;9.10
19040;BMP180;9652;49.014;12.052;2023-03-05T09:57:16;97659.00;;;9.10
19040;BMP180;9652;49.014;12.052;2023-03-05T09:59:49;97657.00;;;9.20
19040;BMP180;9652;49.014;12.052;2023-03-05T10:02:25;97668.00;;;9.20
19040;BMP180;9652;49.014;12.052;2023-03-05T10:05:01;97647.00;;;9.20
19040;BMP180;9652;49.014;12.052;2023-03-05T10:07:32;97655.00;;;9.10
19040;BMP180;9652;49.014;12.052;2023-03-05T10:10:03;97659.00;;;9.10
19040;BMP180;9652;49.014;12.052;2023-03-05T10:12:38;97629.00;;;9.00
19040;BMP180;9652;49.014;12.052;2023-03-05T10:15:12;97643.00;;;9.00
19040;BMP180;9652;49.014;12.052;2023-03-05T10:18:03;97638.00;;;9.00
19040;BMP180;9652;49.014;12.052;2023-03-05T10:20:57;97641.00;;;8.90
19040;BMP180;9652;49.014;12.052;2023-03-05T10:23:37;97636.00;;;8.80
19040;BMP180;9652;49.014;12.052;2023-03-05T10:26:23;97650.00;;;8.80
19040;BMP180;9652;49.014;12.052;2023-03-05T10:29:04;97625.00;;;8.70
19040;BMP180;9652;49.014;12.052;2023-03-05T10:31:57;97631.00;;;8.60
19040;BMP180;9652;49.014;12.052;2023-03-05T10:34:54;97619.00;;;8.60
19040;BMP180;9652;49.014;12.052;2023-03-05T10:38:08;97635.00;;;8.50
19040;BMP180;9652;49.014;12.052;2023-03-05T10:40:45;97635.00;;;8.50
19040;BMP180;9652;49.014;12.052;2023-03-05T10:43:23;97608.00;;;8.50
19040;BMP180;9652;49.014;12.052;2023-03-05T10:45:53;97629.00;;;8.50
19040;BMP180;9652;49.014;12.052;2023-03-05T10:48:32;97627.00;;;8.50
19040;BMP180;9652;49.014;12.052;2023-03-05T10:51:12;97609.00;;;8.50
19040;BMP180;9652;49.014;12.052;2023-03-05T10:53:51;97623.00;;;8.50
19040;BMP180;9652;49.014;12.052;2023-03-05T10:56:23;97607.00;;;8.50
19040;BMP180;9652;49.014;12.052;2023-03-05T10:58:51;97599.00;;;8.50
19040;BMP180;9652;49.014;12.052;2023-03-05T11:01:22;97588.00;;;8.50
19040;BMP180;9652;49.014;12.052;2023-03-05T11:03:54;97601.00;;;8.50
19040;BMP180;9652;49.014;12.052;2023-03-05T11:06:34;97589.00;;;8.50
19040;BMP180;9652;49.014;12.052;2023-03-05T11:09:21;97591.00;;;8.40
19040;BMP180;9652;49.014;12.052;2023-03-05T11:12:12;97597.00;;;8.40
19040;BMP180;9652;49.014;12.052;2023-03-05T11:14:43;97585.00;;;8.40
19040;BMP180;9652;49.014;12.052;2023-03-05T11:17:33;97591.00;;;8.30
19040;BMP180;9652;49.014;12.052;2023-03-05T11:20:31;97595.00;;;8.20
19040;BMP180;9652;49.014;12.052;2023-03-05T11:23:07;97570.00;;;8.20
19040;BMP180;9652;49.014;12.052;2023-03-05T11:25:55;97580.00;;;8.20
19040;BMP180;9652;49.014;12.052;2023-03-05T11:28:27;97566.00;;;8.20
19040;BMP180;9652;49.014;12.052;2023-03-05T11:31:03;97552.00;;;8.10
19040;BMP180;9652;49.014;12.052;2023-03-05T11:33:33;97572.00;;;8.10
19040;BMP180;9652;49.014;12.052;2023-03-05T11:36:21;97566.00;;;8.10
19040;BMP180;9652;49.014;12.052;2023-03-05T11:38:56;97564.00;;;8.00
19040;BMP180;9652;49.014;12.052;2023-03-05T11:41:31;97518.00;;;8.00
19040;BMP180;9652;49.014;12.052;2023-03-05T11:44:03;97547.00;;;8.00
19040;BMP180;9652;49.014;12.052;2023-03-05T11:46:40;97534.00;;;8.00
19040;BMP180;9652;49.014;12.052;2023-03-05T11:49:15;97538.00;;;8.00
19040;BMP180;9652;49.014;12.052;2023-03-05T11:51:54;97534.00;;;8.00
19040;BMP180;9652;49.014;12.052;2023-03-05T11:54:30;97536.00;;;8.00
19040;BMP180;9652;49.014;12.052;2023-03-05T11:57:02;97534.00;;;8.00
19040;BMP180;9652;49.014;12.052;2023-03-05T11:59:34;97533.00;;;8.00
19040;BMP180;9652;49.014;12.052;2023-03-05T12:02:02;97540.00;;;8.00
19040;BMP180;9652;49.014;12.052;2023-03-05T12:04:32;97539.00;;;8.00
19040;BMP180;9652;49.014;12.052;2023-03-05T12:07:02;97523.00;;;7.90
19040;BMP180;9652;49.014;12.052;2023-03-05T12:09:39;97505.00;;;8.00
19040;BMP180;9652;49.014;12.052;2023-03-05T12:12:28;97524.00;;;8.00
19040;BMP180;9652;49.014;12.052;2023-03-05T12:15:23;97512.00;;;7.90
19040;BMP180;9652;49.014;12.052;2023-03-05T12:18:05;97515.00;;;7.90
19040;BMP180;9652;49.014;12.052;2023-03-05T12:20:44;97498.00;;;7.90
19040;BMP180;9652;49.014;12.052;2023-03-05T12:23:13;97517.00;;;7.90
19040;BMP180;9652;49.014;12.052;2023-03-05T12:25:49;97511.00;;;7.90
19040;BMP180;9652;49.014;12.052;2023-03-05T12:28:53;97463.00;;;7.80
19040;BMP180;9652;49.014;12.052;2023-03-05T12:31:36;97500.00;;;7.80
19040;BMP180;9652;49.014;12.052;2023-03-05T12:38:08;97490.00;;;7.80
19040;BMP180;9652;49.014;12.052;2023-03-05T12:40:39;97499.00;;;7.80
19040;BMP180;9652;49.014;12.052;2023-03-05T12:43:28;97502.00;;;7.80
19040;BMP180;9652;49.014;12.052;2023-03-05T12:46:22;97497.00;;;7.80
19040;BMP180;9652;49.014;12.052;2023-03-05T12:48:50;97494.00;;;7.80
19040;BMP180;9652;49.014;12.052;2023-03-05T12:51:35;97490.00;;;7.80
19040;BMP180;9652;49.014;12.052;2023-03-05T12:54:37;97489.00;;;7.80
19040;BMP180;9652;49.014;12.052;2023-03-05T12:57:14;97488.00;;;7.70
19040;BMP180;9652;49.014;12.052;2023-03-05T12:59:49;97480.00;;;7.70
19040;BMP180;9652;49.014;12.052;2023-03-05T13:02:24;97477.00;;;7.70
19040;BMP180;9652;49.014;12.052;2023-03-05T13:04:58;97479.00;;;7.70
19040;BMP180;9652;49.014;12.052;2023-03-05T13:07:26;97478.00;;;7.70
19040;BMP180;9652;49.014;12.052;2023-03-05T13:09:55;97476.00;;;7.70
19040;BMP180;9652;49.014;12.052;2023-03-05T13:12:25;97477.00;;;7.70
19040;BMP180;9652;49.014;12.052;2023-03-05T13:15:00;97476.00;;;7.70
19040;BMP180;9652;49.014;12.052;2023-03-05T13:17:34;97486.00;;;7.70
19040;BMP180;9652;49.014;12.052;2023-03-05T13:20:29;97468.00;;;7.60
19040;BMP180;9652;49.014;12.052;2023-03-05T13:23:23;97469.00;;;7.60
19040;BMP180;9652;49.014;12.052;2023-03-05T13:26:08;97460.00;;;7.60
19040;BMP180;9652;49.014;12.052;2023-03-05T13:28:37;97458.00;;;7.60
19040;BMP180;9652;49.014;12.052;2023-03-05T13:31:14;97472.00;;;7.60
19040;BMP180;9652;49.014;12.052;2023-03-05T13:33:50;97466.00;;;7.60
19040;BMP180;9652;49.014;12.052;2023-03-05T13:36:20;97440.00;;;7.60
19040;BMP180;9652;49.014;12.052;2023-03-05T13:38:48;97447.00;;;7.60
19040;BMP180;9652;49.014;12.052;2023-03-05T13:41:21;97444.00;;;7.60
19040;BMP180;9652;49.014;12.052;2023-03-05T13:43:51;97441.00;;;7.60
19040;BMP180;9652;49.014;12.052;2023-03-05T13:46:30;97452.00;;;7.60
19040;BMP180;9652;49.014;12.052;2023-03-05T13:49:18;97441.00;;;7.50
19040;BMP180;9652;49.014;12.052;2023-03-05T13:51:48;97461.00;;;7.60
19040;BMP180;9652;49.014;12.052;2023-03-05T13:54:18;97446.00;;;7.60
19040;BMP180;9652;49.014;12.052;2023-03-05T13:56:52;97449.00;;;7.60
19040;BMP180;9652;49.014;12.052;2023-03-05T13:59:22;97450.00;;;7.60
19040;BMP180;9652;49.014;12.052;2023-03-05T14:01:51;97429.00;;;7.60
19040;BMP180;9652;49.014;12.052;2023-03-05T14:04:22;97440.00;;;7.70
19040;BMP180;9652;49.014;12.052;2023-03-05T14:06:56;97438.00;;;7.70
19040;BMP180;9652;49.014;12.052;2023-03-05T14:09:26;97440.00;;;7.70
19040;BMP180;9652;49.014;12.052;2023-03-05T14:11:58;97441.00;;;7.70
19040;BMP180;9652;49.014;12.052;2023-03-05T14:14:28;97435.00;;;7.70
19040;BMP180;9652;49.014;12.052;2023-03-05T14:17:29;97434.00;;;7.70
19040;BMP180;9652;49.014;12.052;2023-03-05T14:20:20;97447.00;;;7.80
19040;BMP180;9652;49.014;12.052;2023-03-05T14:22:50;97429.00;;;7.90
19040;BMP180;9652;49.014;12.052;2023-03-05T14:25:34;97429.00;;;7.90
19040;BMP180;9652;49.014;12.052;2023-03-05T14:28:06;97408.00;;;7.90
19040;BMP180;9652;49.014;12.052;2023-03-05T14:30:34;97421.00;;;7.90
19040;BMP180;9652;49.014;12.052;2023-03-05T14:33:03;97411.00;;;7.90
19040;BMP180;9652;49.014;12.052;2023-03-05T14:35:31;97413.00;;;7.90
19040;BMP180;9652;49.014;12.052;2023-03-05T14:37:59;97414.00;;;7.90
19040;BMP180;9652;49.014;12.052;2023-03-05T14:40:29;97413.00;;;7.90
19040;BMP180;9652;49.014;12.052;2023-03-05T14:42:58;97393.00;;;7.90
19040;BMP180;9652;49.014;12.052;2023-03-05T14:45:27;97409.00;;;8.00
19040;BMP180;9652;49.014;12.052;2023-03-05T14:47:57;97401.00;;;8.00
19040;BMP180;9652;49.014;12.052;2023-03-05T14:50:27;97412.00;;;8.00